Fedora — SLKU — position and weather

sailwx.info

Track history (hours):
 
Tides and Currents Weather Stations Pressure Air Temp Water Temp Dewpoint Dewpoint Depression Visibility Wind Speed Wind Dir Waves Ship Positions

Fedora

Last reported at 2018-Jun-19 16:43 UTC. Time now 2018-Jun-21 23:54 UTC.
Position S 38°37' E 148°27'.

Length 228 m; draft 9.1 m.

Type: Cargo ship. MMSI: 266259000.

Date/timePositionNaut miles runAvg speedWind from/ knotsBaromVisibWave heightAir tempDewpointWater temp
2018-Jun-19 16:43S 38°37' E 148°27'518.4
2018-Jun-19 16:27S 38°34' E 148°32'817.9
2018-Jun-19 15:59S 38°29' E 148°41'917.7
2018-Jun-19 15:30S 38°24' E 148°49'918.0
2018-Jun-19 14:59S 38°18' E 148°58'918.1
2018-Jun-19 14:29S 38°13' E 149°08'918.1
2018-Jun-19 13:59S 38°07' E 149°17'918.0
2018-Jun-19 13:30S 38°01' E 149°25'242 5.7
2018-Jun-17 19:19S 34°16' E 151°14'413.2
2018-Jun-17 19:00S 34°14' E 151°18'714.2
2018-Jun-17 18:31S 34°11' E 151°26'714.7
2018-Jun-17 18:01S 34°06' E 151°33'815.3
2018-Jun-17 17:31S 33°60' E 151°38'815.4
2018-Jun-17 17:01S 33°53' E 151°43'815.2
2018-Jun-17 16:31S 33°47' E 151°49'3916.2
2018-Jun-17 14:05S 33°16' E 152°17'116.2
2018-Jun-17 14:00S 33°15' E 152°18'816.5
2018-Jun-17 13:31S 33°08' E 152°24'816.2
2018-Jun-17 13:00S 33°02' E 152°30'815.7
2018-Jun-17 12:31S 32°56' E 152°36'815.7
2018-Jun-17 12:00S 32°49' E 152°41'815.9
2018-Jun-17 11:31S 32°42' E 152°46'28215.8
2018-Jun-16 17:43S 28°06' E 153°49'417.1
2018-Jun-16 17:29S 28°02' E 153°49'817.8
2018-Jun-16 17:01S 27°54' E 153°48'918.3
2018-Jun-16 16:29S 27°44' E 153°48'918.3
2018-Jun-16 16:01S 27°36' E 153°47'918.1
2018-Jun-16 15:31S 27°27' E 153°47'918.0
2018-Jun-16 15:01S 27°18' E 153°45'917.2
2018-Jun-16 14:31S 27°09' E 153°43'816.7
2018-Jun-16 14:01S 27°01' E 153°42'916.1
2018-Jun-16 13:28S 26°52' E 153°40'716.3
2018-Jun-16 13:01S 26°49' E 153°33'816.4
2018-Jun-16 12:31S 26°46' E 153°24'816.6
2018-Jun-16 12:00S 26°43' E 153°16'5 9.4
2018-Jun-16 11:30S 26°45' E 153°11'714.6
2018-Jun-16 11:00S 26°52' E 153°10'815.8
2018-Jun-16 10:30S 26°59' E 153°14'714.0
2018-Jun-16 10:00S 27°05' E 153°19'714.1
2018-Jun-16 09:30S 27°12' E 153°21'713.8
2018-Jun-16 09:00S 27°17' E 153°15'510.8
2018-Jun-16 08:30S 27°21' E 153°11'2 4.4
2018-Jun-16 08:00S 27°23' E 153°10'0 0.0
2018-Jun-16 07:28S 27°23' E 153°10'0 0.0
2018-Jun-16 06:58S 27°23' E 153°10'0 0.0
2018-Jun-16 06:28S 27°23' E 153°10'0 0.0
2018-Jun-16 05:58S 27°23' E 153°10'0 0.0
2018-Jun-16 05:28S 27°23' E 153°10'0 0.0
2018-Jun-16 04:58S 27°23' E 153°10'0 0.0
2018-Jun-16 04:28S 27°23' E 153°10'0 0.0
2018-Jun-16 03:55S 27°23' E 153°10'0 0.0
2018-Jun-16 03:25S 27°23' E 153°10'0 0.0
2018-Jun-16 02:58S 27°23' E 153°10'0 0.0
2018-Jun-16 02:28S 27°23' E 153°10'0 0.0
2018-Jun-16 01:52S 27°23' E 153°10'0 0.0
2018-Jun-16 01:28S 27°23' E 153°10'0 0.0
2018-Jun-16 00:58S 27°23' E 153°10'0 0.0
2018-Jun-16 00:28S 27°23' E 153°10'0 0.0
2018-Jun-15 23:58S 27°23' E 153°10'0 0.0
2018-Jun-15 23:28S 27°23' E 153°10'0 0.0
2018-Jun-15 22:58S 27°23' E 153°10'0 0.0
2018-Jun-15 22:28S 27°23' E 153°10'0 0.0
2018-Jun-15 21:58S 27°23' E 153°10'0 0.0
2018-Jun-15 21:28S 27°23' E 153°10'0 0.0
2018-Jun-15 20:58S 27°23' E 153°10'0 0.0
2018-Jun-15 20:28S 27°23' E 153°10'0 0.0
2018-Jun-15 19:58S 27°23' E 153°10'0 0.0
2018-Jun-15 19:25S 27°23' E 153°10'0 0.0
2018-Jun-15 18:58S 27°23' E 153°10'0 0.0
2018-Jun-15 18:28S 27°23' E 153°10'0 0.0
2018-Jun-15 17:49S 27°23' E 153°10'0 0.0
2018-Jun-15 17:28S 27°23' E 153°10'0 0.0
2018-Jun-15 16:55S 27°23' E 153°10'0 0.0
2018-Jun-15 16:28S 27°23' E 153°10'0 0.0
2018-Jun-15 15:58S 27°23' E 153°10'0 0.0
2018-Jun-15 15:28S 27°23' E 153°10'0 0.0
2018-Jun-15 14:58S 27°23' E 153°10'0 0.0
2018-Jun-15 14:28S 27°23' E 153°10'0 0.0
2018-Jun-15 13:58S 27°23' E 153°10'0 0.0
2018-Jun-15 13:28S 27°23' E 153°10'0 0.0
2018-Jun-15 12:58S 27°23' E 153°10'0 0.0
2018-Jun-15 12:28S 27°23' E 153°10'0 0.0
2018-Jun-15 11:58S 27°23' E 153°10'0 0.0
2018-Jun-15 11:28S 27°23' E 153°10'0 0.0
2018-Jun-15 10:58S 27°23' E 153°10'0 0.0
2018-Jun-15 10:28S 27°23' E 153°10'0 0.0
2018-Jun-15 09:58S 27°23' E 153°10'0 0.0
2018-Jun-15 09:28S 27°23' E 153°10'0 0.0
2018-Jun-15 08:58S 27°23' E 153°10'0 0.0
2018-Jun-15 08:28S 27°23' E 153°10'0 0.0
2018-Jun-15 07:58S 27°23' E 153°10'0 0.0
2018-Jun-15 07:28S 27°23' E 153°10'0 0.0
2018-Jun-15 06:58S 27°23' E 153°10'0 0.0
2018-Jun-15 06:25S 27°23' E 153°10'0 0.0
2018-Jun-15 05:58S 27°23' E 153°10'0 0.0
2018-Jun-15 05:28S 27°23' E 153°10'0 0.0
2018-Jun-15 04:58S 27°23' E 153°10'0 0.2
2018-Jun-15 04:30S 27°23' E 153°10'4 7.3
2018-Jun-15 04:00S 27°20' E 153°12'714.0
2018-Jun-15 03:30S 27°15' E 153°18'612.5
2018-Jun-15 03:00S 27°09' E 153°21'714.7
2018-Jun-15 02:31S 27°03' E 153°17'815.4
2018-Jun-15 02:00S 26°56' E 153°13'12 3.7
2018-Jun-14 22:41S 26°47' E 153°22'0 0.6
2018-Jun-14 22:30S 26°47' E 153°22'1 2.1
2018-Jun-14 22:00S 26°46' E 153°23'1 1.7
2018-Jun-14 21:30S 26°46' E 153°22'0 0.8
2018-Jun-14 20:59S 26°45' E 153°22'1 1.2
2018-Jun-14 20:30S 26°45' E 153°22'1 1.1
2018-Jun-14 20:00S 26°44' E 153°21'1 1.3
2018-Jun-14 19:30S 26°44' E 153°22'  
2018-Jun-11 14:56S 36°13' E 174°56'410.1
2018-Jun-11 14:30S 36°17' E 174°58'5 9.8
2018-Jun-11 14:00S 36°22' E 175°00'4 8.8
2018-Jun-11 13:30S 36°26' E 175°01'6 9.6
2018-Jun-11 12:55S 36°32' E 175°01'4 9.3
2018-Jun-11 12:30S 36°36' E 174°60'5 9.7
2018-Jun-11 12:00S 36°39' E 174°56'5 9.8
2018-Jun-11 11:28S 36°43' E 174°52'510.0
2018-Jun-11 11:00S 36°47' E 174°48'3 6.8
2018-Jun-11 10:30S 36°50' E 174°47'1 1.2
2018-Jun-11 09:59S 36°50' E 174°46'0 0.0
2018-Jun-11 09:29S 36°50' E 174°46'0 0.0
2018-Jun-11 08:56S 36°50' E 174°46'0 0.0
2018-Jun-11 08:29S 36°50' E 174°46'0 0.0
2018-Jun-11 07:59S 36°50' E 174°46'0 0.0
2018-Jun-11 07:29S 36°50' E 174°46'0 0.0
2018-Jun-11 06:59S 36°50' E 174°46'0 0.0
2018-Jun-11 06:29S 36°50' E 174°46'0 0.0
2018-Jun-11 05:59S 36°50' E 174°46'0 0.0
2018-Jun-11 05:29S 36°50' E 174°46'0 0.0
2018-Jun-11 04:59S 36°50' E 174°46'0 0.0
2018-Jun-11 04:29S 36°50' E 174°46'0 0.0
2018-Jun-11 03:59S 36°50' E 174°46'0 0.0
2018-Jun-11 03:29S 36°50' E 174°46'0 0.0
2018-Jun-11 02:59S 36°50' E 174°46'0 0.0
2018-Jun-11 02:29S 36°50' E 174°46'0 0.0
2018-Jun-11 01:59S 36°50' E 174°46'0 0.0
2018-Jun-11 01:29S 36°50' E 174°46'0 0.0
2018-Jun-11 00:59S 36°50' E 174°46'0 0.0
2018-Jun-11 00:29S 36°50' E 174°46'0 0.0
2018-Jun-10 23:59S 36°50' E 174°46'0 0.0
2018-Jun-10 23:29S 36°50' E 174°46'0 0.0
2018-Jun-10 22:59S 36°50' E 174°46'0 0.0
2018-Jun-10 22:29S 36°50' E 174°46'0 0.3
2018-Jun-10 22:00S 36°50' E 174°46'1 2.3
2018-Jun-10 21:30S 36°50' E 174°48'3 5.5
2018-Jun-10 21:00S 36°48' E 174°49'5 9.1
2018-Jun-10 20:30S 36°43' E 174°51'4 7.7
2018-Jun-10 20:00S 36°40' E 174°54'4 7.1
2018-Jun-10 19:30S 36°38' E 174°57'5 9.3
2018-Jun-10 19:00S 36°34' E 175°01'5 9.8
2018-Jun-10 18:30S 36°30' E 175°04'5 9.9
2018-Jun-10 18:00S 36°25' E 175°06'5 9.3
2018-Jun-10 17:30S 36°23' E 175°11'5 9.8
2018-Jun-10 17:00S 36°22' E 175°17'  
Track history (hours):
 
Tides and Currents Weather Stations Pressure Air Temp Water Temp Dewpoint Dewpoint Depression Visibility Wind Speed Wind Dir Waves Ship Positions

Fedora

Last reported at 2018-Jun-19 16:43 UTC. Time now 2018-Jun-21 23:54 UTC.
Position S 38°37' E 148°27'.

Length 228 m; draft 9.1 m.

Type: Cargo ship. MMSI: 266259000.

Date/timePositionNaut miles runAvg speedWind from/ knotsBaromVisibWave heightAir tempDewpointWater temp
2018-Jun-19 16:43S 38°37' E 148°27'518.4
2018-Jun-19 16:27S 38°34' E 148°32'817.9
2018-Jun-19 15:59S 38°29' E 148°41'917.7
2018-Jun-19 15:30S 38°24' E 148°49'918.0
2018-Jun-19 14:59S 38°18' E 148°58'918.1
2018-Jun-19 14:29S 38°13' E 149°08'918.1
2018-Jun-19 13:59S 38°07' E 149°17'918.0
2018-Jun-19 13:30S 38°01' E 149°25'242 5.7
2018-Jun-17 19:19S 34°16' E 151°14'413.2
2018-Jun-17 19:00S 34°14' E 151°18'714.2
2018-Jun-17 18:31S 34°11' E 151°26'714.7
2018-Jun-17 18:01S 34°06' E 151°33'815.3
2018-Jun-17 17:31S 33°60' E 151°38'815.4
2018-Jun-17 17:01S 33°53' E 151°43'815.2
2018-Jun-17 16:31S 33°47' E 151°49'3916.2
2018-Jun-17 14:05S 33°16' E 152°17'116.2
2018-Jun-17 14:00S 33°15' E 152°18'816.5
2018-Jun-17 13:31S 33°08' E 152°24'816.2
2018-Jun-17 13:00S 33°02' E 152°30'815.7
2018-Jun-17 12:31S 32°56' E 152°36'815.7
2018-Jun-17 12:00S 32°49' E 152°41'815.9
2018-Jun-17 11:31S 32°42' E 152°46'28215.8
2018-Jun-16 17:43S 28°06' E 153°49'417.1
2018-Jun-16 17:29S 28°02' E 153°49'817.8
2018-Jun-16 17:01S 27°54' E 153°48'918.3
2018-Jun-16 16:29S 27°44' E 153°48'918.3
2018-Jun-16 16:01S 27°36' E 153°47'918.1
2018-Jun-16 15:31S 27°27' E 153°47'918.0
2018-Jun-16 15:01S 27°18' E 153°45'917.2
2018-Jun-16 14:31S 27°09' E 153°43'816.7
2018-Jun-16 14:01S 27°01' E 153°42'916.1
2018-Jun-16 13:28S 26°52' E 153°40'716.3
2018-Jun-16 13:01S 26°49' E 153°33'816.4
2018-Jun-16 12:31S 26°46' E 153°24'816.6
2018-Jun-16 12:00S 26°43' E 153°16'5 9.4
2018-Jun-16 11:30S 26°45' E 153°11'714.6
2018-Jun-16 11:00S 26°52' E 153°10'815.8
2018-Jun-16 10:30S 26°59' E 153°14'714.0
2018-Jun-16 10:00S 27°05' E 153°19'714.1
2018-Jun-16 09:30S 27°12' E 153°21'713.8
2018-Jun-16 09:00S 27°17' E 153°15'510.8
2018-Jun-16 08:30S 27°21' E 153°11'2 4.4
2018-Jun-16 08:00S 27°23' E 153°10'0 0.0
2018-Jun-16 07:28S 27°23' E 153°10'0 0.0
2018-Jun-16 06:58S 27°23' E 153°10'0 0.0
2018-Jun-16 06:28S 27°23' E 153°10'0 0.0
2018-Jun-16 05:58S 27°23' E 153°10'0 0.0
2018-Jun-16 05:28S 27°23' E 153°10'0 0.0
2018-Jun-16 04:58S 27°23' E 153°10'0 0.0
2018-Jun-16 04:28S 27°23' E 153°10'0 0.0
2018-Jun-16 03:55S 27°23' E 153°10'0 0.0
2018-Jun-16 03:25S 27°23' E 153°10'0 0.0
2018-Jun-16 02:58S 27°23' E 153°10'0 0.0
2018-Jun-16 02:28S 27°23' E 153°10'0 0.0
2018-Jun-16 01:52S 27°23' E 153°10'0 0.0
2018-Jun-16 01:28S 27°23' E 153°10'0 0.0
2018-Jun-16 00:58S 27°23' E 153°10'0 0.0
2018-Jun-16 00:28S 27°23' E 153°10'0 0.0
2018-Jun-15 23:58S 27°23' E 153°10'0 0.0
2018-Jun-15 23:28S 27°23' E 153°10'0 0.0
2018-Jun-15 22:58S 27°23' E 153°10'0 0.0
2018-Jun-15 22:28S 27°23' E 153°10'0 0.0
2018-Jun-15 21:58S 27°23' E 153°10'0 0.0
2018-Jun-15 21:28S 27°23' E 153°10'0 0.0
2018-Jun-15 20:58S 27°23' E 153°10'0 0.0
2018-Jun-15 20:28S 27°23' E 153°10'0 0.0
2018-Jun-15 19:58S 27°23' E 153°10'0 0.0
2018-Jun-15 19:25S 27°23' E 153°10'0 0.0
2018-Jun-15 18:58S 27°23' E 153°10'0 0.0
2018-Jun-15 18:28S 27°23' E 153°10'0 0.0
2018-Jun-15 17:49S 27°23' E 153°10'0 0.0
2018-Jun-15 17:28S 27°23' E 153°10'0 0.0
2018-Jun-15 16:55S 27°23' E 153°10'0 0.0
2018-Jun-15 16:28S 27°23' E 153°10'0 0.0
2018-Jun-15 15:58S 27°23' E 153°10'0 0.0
2018-Jun-15 15:28S 27°23' E 153°10'0 0.0
2018-Jun-15 14:58S 27°23' E 153°10'0 0.0
2018-Jun-15 14:28S 27°23' E 153°10'0 0.0
2018-Jun-15 13:58S 27°23' E 153°10'0 0.0
2018-Jun-15 13:28S 27°23' E 153°10'0 0.0
2018-Jun-15 12:58S 27°23' E 153°10'0 0.0
2018-Jun-15 12:28S 27°23' E 153°10'0 0.0
2018-Jun-15 11:58S 27°23' E 153°10'0 0.0
2018-Jun-15 11:28S 27°23' E 153°10'0 0.0
2018-Jun-15 10:58S 27°23' E 153°10'0 0.0
2018-Jun-15 10:28S 27°23' E 153°10'0 0.0
2018-Jun-15 09:58S 27°23' E 153°10'0 0.0
2018-Jun-15 09:28S 27°23' E 153°10'0 0.0
2018-Jun-15 08:58S 27°23' E 153°10'0 0.0
2018-Jun-15 08:28S 27°23' E 153°10'0 0.0
2018-Jun-15 07:58S 27°23' E 153°10'0 0.0
2018-Jun-15 07:28S 27°23' E 153°10'0 0.0
2018-Jun-15 06:58S 27°23' E 153°10'0 0.0
2018-Jun-15 06:25S 27°23' E 153°10'0 0.0
2018-Jun-15 05:58S 27°23' E 153°10'0 0.0
2018-Jun-15 05:28S 27°23' E 153°10'0 0.0
2018-Jun-15 04:58S 27°23' E 153°10'0 0.2
2018-Jun-15 04:30S 27°23' E 153°10'4 7.3
2018-Jun-15 04:00S 27°20' E 153°12'714.0
2018-Jun-15 03:30S 27°15' E 153°18'612.5
2018-Jun-15 03:00S 27°09' E 153°21'714.7
2018-Jun-15 02:31S 27°03' E 153°17'815.4
2018-Jun-15 02:00S 26°56' E 153°13'12 3.7
2018-Jun-14 22:41S 26°47' E 153°22'0 0.6
2018-Jun-14 22:30S 26°47' E 153°22'1 2.1
2018-Jun-14 22:00S 26°46' E 153°23'1 1.7
2018-Jun-14 21:30S 26°46' E 153°22'0 0.8
2018-Jun-14 20:59S 26°45' E 153°22'1 1.2
2018-Jun-14 20:30S 26°45' E 153°22'1 1.1
2018-Jun-14 20:00S 26°44' E 153°21'1 1.3
2018-Jun-14 19:30S 26°44' E 153°22'  
2018-Jun-11 14:56S 36°13' E 174°56'410.1
2018-Jun-11 14:30S 36°17' E 174°58'5 9.8
2018-Jun-11 14:00S 36°22' E 175°00'4 8.8
2018-Jun-11 13:30S 36°26' E 175°01'6 9.6
2018-Jun-11 12:55S 36°32' E 175°01'4 9.3
2018-Jun-11 12:30S 36°36' E 174°60'5 9.7
2018-Jun-11 12:00S 36°39' E 174°56'5 9.8
2018-Jun-11 11:28S 36°43' E 174°52'510.0
2018-Jun-11 11:00S 36°47' E 174°48'3 6.8
2018-Jun-11 10:30S 36°50' E 174°47'1 1.2
2018-Jun-11 09:59S 36°50' E 174°46'0 0.0
2018-Jun-11 09:29S 36°50' E 174°46'0 0.0
2018-Jun-11 08:56S 36°50' E 174°46'0 0.0
2018-Jun-11 08:29S 36°50' E 174°46'0 0.0
2018-Jun-11 07:59S 36°50' E 174°46'0 0.0
2018-Jun-11 07:29S 36°50' E 174°46'0 0.0
2018-Jun-11 06:59S 36°50' E 174°46'0 0.0
2018-Jun-11 06:29S 36°50' E 174°46'0 0.0
2018-Jun-11 05:59S 36°50' E 174°46'0 0.0
2018-Jun-11 05:29S 36°50' E 174°46'0 0.0
2018-Jun-11 04:59S 36°50' E 174°46'0 0.0
2018-Jun-11 04:29S 36°50' E 174°46'0 0.0
2018-Jun-11 03:59S 36°50' E 174°46'0 0.0
2018-Jun-11 03:29S 36°50' E 174°46'0 0.0
2018-Jun-11 02:59S 36°50' E 174°46'0 0.0
2018-Jun-11 02:29S 36°50' E 174°46'0 0.0
2018-Jun-11 01:59S 36°50' E 174°46'0 0.0
2018-Jun-11 01:29S 36°50' E 174°46'0 0.0
2018-Jun-11 00:59S 36°50' E 174°46'0 0.0
2018-Jun-11 00:29S 36°50' E 174°46'0 0.0
2018-Jun-10 23:59S 36°50' E 174°46'0 0.0
2018-Jun-10 23:29S 36°50' E 174°46'0 0.0
2018-Jun-10 22:59S 36°50' E 174°46'0 0.0
2018-Jun-10 22:29S 36°50' E 174°46'0 0.3
2018-Jun-10 22:00S 36°50' E 174°46'1 2.3
2018-Jun-10 21:30S 36°50' E 174°48'3 5.5
2018-Jun-10 21:00S 36°48' E 174°49'5 9.1
2018-Jun-10 20:30S 36°43' E 174°51'4 7.7
2018-Jun-10 20:00S 36°40' E 174°54'4 7.1
2018-Jun-10 19:30S 36°38' E 174°57'5 9.3
2018-Jun-10 19:00S 36°34' E 175°01'5 9.8
2018-Jun-10 18:30S 36°30' E 175°04'5 9.9
2018-Jun-10 18:00S 36°25' E 175°06'5 9.3
2018-Jun-10 17:30S 36°23' E 175°11'5 9.8
2018-Jun-10 17:00S 36°22' E 175°17'  

Dump ship's entire track history